Time;durP1;ratioP1;P1;durP2;ratioP2;P2;SDS_P1;SDS_P2;PMS_P1;PMS_P2;Temp;Humidity;BMP_temperature;BMP_pressure;BME280_temperature;BME280_humidity;BME280_pressure;Samples;Min_cycle;Max_cycle;Signal;HPM_P1;HPM_P2
2022/02/21 00:00:41;;;;;;;39.42;18.00;;;;;;;7.29;90.35;97512.41;5051166;28;20024;-82
2022/02/21 00:03:07;;;;;;;34.47;17.85;;;;;;;7.22;91.11;97505.66;5051406;28;20025;-83
2022/02/21 00:05:36;;;;;;;36.78;17.80;;;;;;;7.16;91.35;97495.34;5018311;28;20024;-82
2022/02/21 00:08:01;;;;;;;32.05;15.98;;;;;;;7.24;90.90;97499.34;5018098;28;20033;-83
2022/02/21 00:10:27;;;;;;;38.13;18.77;;;;;;;7.34;90.19;97505.06;5034706;28;20031;-82
2022/02/21 00:12:53;;;;;;;52.05;21.90;;;;;;;7.39;90.05;97503.03;5018134;28;20032;-84
2022/02/21 00:15:23;;;;;;;28.55;16.08;;;;;;;7.43;89.25;97496.63;5034461;28;20512;-82
2022/02/21 00:17:50;;;;;;;28.17;14.68;;;;;;;7.36;88.98;97497.84;5050439;28;20045;-82
2022/02/21 00:20:16;;;;;;;31.23;16.05;;;;;;;7.39;89.09;97503.88;5017986;28;20032;-82
2022/02/21 00:22:41;;;;;;;28.17;15.88;;;;;;;7.51;88.59;97499.75;5017852;28;20098;-82
2022/02/21 00:25:08;;;;;;;36.22;18.42;;;;;;;7.48;88.49;97502.56;5051018;28;20033;-82
2022/02/21 00:27:34;;;;;;;33.08;17.85;;;;;;;7.43;89.21;97501.94;5017728;28;20029;-84
2022/02/21 00:29:59;;;;;;;35.15;18.15;;;;;;;7.38;88.93;97496.84;5067830;28;20035;-83
2022/02/21 00:32:25;;;;;;;39.50;19.98;;;;;;;7.41;89.27;97493.19;5050702;28;20098;-82
2022/02/21 00:34:50;;;;;;;38.20;20.42;;;;;;;7.26;90.39;97485.97;5017616;28;20094;-81
2022/02/21 00:37:16;;;;;;;32.90;16.55;;;;;;;7.33;89.43;97484.69;5017609;28;20024;-82
2022/02/21 00:39:42;;;;;;;28.90;16.25;;;;;;;7.34;89.14;97489.09;5017468;28;20051;-82
2022/02/21 00:42:07;;;;;;;36.60;17.75;;;;;;;7.28;89.08;97482.28;5067424;28;20033;-82
2022/02/21 00:44:33;;;;;;;41.38;18.05;;;;;;;7.24;89.52;97474.53;5051069;28;20039;-82
2022/02/21 00:47:00;;;;;;;30.33;16.23;;;;;;;7.27;89.54;97479.69;5017973;28;20099;-82
2022/02/21 00:49:26;;;;;;;33.20;17.63;;;;;;;7.19;89.77;97468.59;5017698;28;20025;-82
2022/02/21 00:51:51;;;;;;;32.58;17.13;;;;;;;7.17;89.84;97481.09;5050668;28;20083;-82
2022/02/21 00:54:17;;;;;;;39.67;18.42;;;;;;;7.05;90.45;97470.13;5067365;28;20029;-81
2022/02/21 00:56:43;;;;;;;35.42;18.67;;;;;;;6.95;91.59;97470.66;5050343;28;20102;-82
2022/02/21 00:59:08;;;;;;;37.28;18.58;;;;;;;6.72;92.73;97450.50;5017763;28;20029;-82
2022/02/21 01:01:34;;;;;;;35.33;18.30;;;;;;;6.78;93.39;97468.81;5050117;28;20032;-82
2022/02/21 01:03:59;;;;;;;36.03;19.40;;;;;;;6.64;93.96;97465.97;5050708;28;20090;-81
2022/02/21 01:06:25;;;;;;;40.03;21.52;;;;;;;6.69;94.12;97466.59;5017288;28;20079;-84
2022/02/21 01:08:50;;;;;;;49.03;23.15;;;;;;;6.59;94.93;97465.31;5050343;28;20020;-81
2022/02/21 01:11:16;;;;;;;42.05;21.40;;;;;;;6.57;95.60;97459.22;5016985;28;20036;-82
2022/02/21 01:13:42;;;;;;;46.75;21.63;;;;;;;6.49;96.01;97442.78;5050012;28;20466;-82
2022/02/21 01:16:07;;;;;;;40.53;21.98;;;;;;;6.51;96.53;97454.19;5050212;28;20082;-82
2022/02/21 01:18:33;;;;;;;41.90;22.58;;;;;;;6.47;96.77;97442.84;5016758;28;20048;-83
2022/02/21 01:21:00;;;;;;;48.10;24.33;;;;;;;6.42;97.84;97459.94;5033659;28;20029;-82
2022/02/21 01:23:26;;;;;;;45.90;22.98;;;;;;;6.23;99.73;97437.81;5017167;28;20036;-82
2022/02/21 01:25:52;;;;;;;48.53;23.58;;;;;;;6.12;99.80;97445.44;5050079;28;20025;-82
2022/02/21 01:28:17;;;;;;;40.63;22.45;;;;;;;5.90;100.00;97435.78;5016963;28;20436;-82
2022/02/21 01:30:43;;;;;;;41.47;21.20;;;;;;;5.87;100.00;97435.06;5050009;28;20036;-83
2022/02/21 01:33:08;;;;;;;46.17;21.25;;;;;;;5.83;100.00;97444.91;5033610;28;20032;-83
2022/02/21 01:35:34;;;;;;;42.97;21.65;;;;;;;5.72;100.00;97451.63;5050157;28;20041;-82
2022/02/21 01:37:59;;;;;;;43.78;20.35;;;;;;;5.55;100.00;97438.22;5049736;28;20033;-83
2022/02/21 01:40:25;;;;;;;39.50;19.13;;;;;;;5.51;100.00;97428.72;5016636;28;20111;-83
2022/02/21 01:42:51;;;;;;;32.75;18.23;;;;;;;5.54;100.00;97426.75;5050025;28;20044;-82
2022/02/21 01:45:17;;;;;;;41.00;19.67;;;;;;;5.37;100.00;97421.34;5016907;28;20033;-82
2022/02/21 01:47:42;;;;;;;38.92;20.40;;;;;;;5.35;100.00;97416.09;5049934;28;20049;-83
2022/02/21 01:50:08;;;;;;;39.33;21.77;;;;;;;5.30;100.00;97406.63;5017797;28;20404;-83
2022/02/21 01:52:34;;;;;;;44.38;23.25;;;;;;;5.18;100.00;97393.88;5037197;28;20090;-82
2022/02/21 01:54:59;;;;;;;47.65;23.83;;;;;;;5.11;100.00;97393.28;5053778;28;20036;-82
2022/02/21 01:57:26;;;;;;;50.47;24.50;;;;;;;5.05;100.00;97379.44;5053828;28;20476;-82
2022/02/21 01:59:52;;;;;;;46.58;22.90;;;;;;;5.07;100.00;97381.13;5053649;28;20471;-81
2022/02/21 02:02:17;;;;;;;43.92;23.83;;;;;;;5.04;100.00;97357.41;5070397;28;20033;-82
2022/02/21 02:04:43;;;;;;;49.03;25.10;;;;;;;5.05;100.00;97371.47;5020487;28;20021;-83
2022/02/21 02:07:11;;;;;;;44.33;24.38;;;;;;;5.01;100.00;97369.91;5020455;28;20083;-82
2022/02/21 02:09:37;;;;;;;41.92;22.15;;;;;;;5.00;100.00;97368.19;5053215;28;20063;-81
2022/02/21 02:12:04;;;;;;;47.10;22.90;;;;;;;4.87;100.00;97375.78;5020440;28;20223;-82
2022/02/21 02:14:35;;;;;;;41.40;23.00;;;;;;;4.79;100.00;97373.47;5020339;28;20025;-83
2022/02/21 02:17:02;;;;;;;44.35;21.75;;;;;;;4.67;100.00;97357.22;5020023;28;20531;-82
2022/02/21 02:19:28;;;;;;;36.22;20.55;;;;;;;4.68;100.00;97359.78;5053425;28;20037;-82
2022/02/21 02:21:55;;;;;;;36.72;19.65;;;;;;;4.53;100.00;97357.78;5053079;28;20036;-82
2022/02/21 02:24:22;;;;;;;37.70;19.02;;;;;;;4.51;100.00;97354.34;5036568;28;20025;-82
2022/02/21 02:26:52;;;;;;;49.70;22.58;;;;;;;4.55;100.00;97360.38;5036519;28;20021;-83
2022/02/21 02:29:19;;;;;;;43.47;22.20;;;;;;;4.48;100.00;97373.00;5020521;28;20021;-83
2022/02/21 02:31:44;;;;;;;46.95;22.63;;;;;;;4.35;100.00;97361.19;5020236;28;20578;-82
2022/02/21 02:34:10;;;;;;;54.83;24.05;;;;;;;4.36;100.00;97355.84;5052804;28;20017;-81
2022/02/21 02:36:35;;;;;;;56.53;27.85;;;;;;;4.40;100.00;97361.84;5053089;28;20021;-82
2022/02/21 02:39:01;;;;;;;71.95;34.58;;;;;;;4.34;100.00;97355.03;5020207;28;20412;-83
2022/02/21 02:41:26;;;;;;;69.10;30.75;;;;;;;4.31;100.00;97348.97;5053503;28;20013;-82
2022/02/21 02:43:52;;;;;;;58.22;24.25;;;;;;;4.31;100.00;97349.84;5020518;28;20021;-83
2022/02/21 02:46:17;;;;;;;52.88;24.48;;;;;;;4.33;100.00;97342.72;5053209;28;20028;-82
2022/02/21 02:48:43;;;;;;;55.80;25.88;;;;;;;4.38;100.00;97355.75;5053039;28;20512;-82
2022/02/21 02:51:08;;;;;;;52.50;25.73;;;;;;;4.37;100.00;97343.44;5019801;28;20384;-83
2022/02/21 02:53:34;;;;;;;49.97;25.27;;;;;;;4.40;100.00;97339.84;5036316;28;20029;-82
2022/02/21 02:56:00;;;;;;;50.65;25.08;;;;;;;4.45;100.00;97351.94;5052856;28;20032;-82
2022/02/21 02:58:25;;;;;;;49.40;25.48;;;;;;;4.42;100.00;97341.47;5036225;28;20106;-82
2022/02/21 03:00:54;;;;;;;47.67;24.65;;;;;;;4.42;100.00;97336.19;5036141;28;20043;-82
2022/02/21 03:03:19;;;;;;;52.17;24.00;;;;;;;4.40;100.00;97343.31;5018871;28;20153;-84
2022/02/21 03:05:45;;;;;;;55.03;25.55;;;;;;;4.30;100.00;97342.84;5019735;28;20033;-82
2022/02/21 03:08:10;;;;;;;45.70;23.30;;;;;;;4.26;100.00;97350.97;5019434;28;20032;-83
2022/02/21 03:10:36;;;;;;;46.75;22.50;;;;;;;4.19;100.00;97344.19;5052853;28;20493;-82
2022/02/21 03:13:01;;;;;;;43.05;22.55;;;;;;;4.04;100.00;97350.09;5019249;28;20095;-84
2022/02/21 03:15:27;;;;;;;46.20;23.40;;;;;;;3.96;100.00;97344.25;5052529;28;20040;-82
2022/02/21 03:17:53;;;;;;;46.78;24.25;;;;;;;3.86;100.00;97335.81;5019461;28;20083;-83
2022/02/21 03:20:18;;;;;;;48.13;24.33;;;;;;;3.87;100.00;97337.53;5036059;28;20489;-82
2022/02/21 03:22:44;;;;;;;45.33;23.83;;;;;;;3.91;100.00;97336.47;5052552;28;20021;-83
2022/02/21 03:25:13;;;;;;;47.88;23.63;;;;;;;3.78;100.00;97333.44;5051970;28;20037;-83
2022/02/21 03:27:42;;;;;;;45.25;22.65;;;;;;;3.73;100.00;97340.69;5035463;28;20531;-84
2022/02/21 03:30:08;;;;;;;43.20;21.70;;;;;;;3.77;100.00;97334.38;5051637;28;20024;-84
2022/02/21 03:32:34;;;;;;;71.63;27.30;;;;;;;3.71;100.00;97337.25;5019125;28;20036;-83
2022/02/21 03:34:59;;;;;;;65.22;28.98;;;;;;;3.60;100.00;97331.50;5068894;28;20021;-83
2022/02/21 03:37:25;;;;;;;94.68;33.35;;;;;;;3.50;100.00;97329.28;5018725;28;20029;-83
2022/02/21 03:39:51;;;;;;;88.75;30.75;;;;;;;3.50;100.00;97321.34;5069203;28;20086;-83
2022/02/21 03:42:16;;;;;;;71.18;28.83;;;;;;;3.42;100.00;97308.41;5018623;28;20024;-83
2022/02/21 03:44:42;;;;;;;63.25;28.55;;;;;;;3.48;100.00;97312.59;5051699;28;20036;-83
2022/02/21 03:47:08;;;;;;;55.60;25.60;;;;;;;3.50;100.00;97314.28;5052152;28;20028;-84
2022/02/21 03:49:33;;;;;;;49.20;21.90;;;;;;;3.50;100.00;97316.06;5035155;28;20052;-83
2022/02/21 03:51:59;;;;;;;53.45;23.70;;;;;;;3.49;100.00;97307.25;5018967;28;20036;-83
2022/02/21 03:54:24;;;;;;;51.90;21.88;;;;;;;3.46;100.00;97320.59;5051598;28;20021;-83
2022/02/21 03:56:50;;;;;;;45.60;20.90;;;;;;;3.44;100.00;97306.59;5019122;28;20024;-83
2022/02/21 03:59:15;;;;;;;45.20;20.55;;;;;;;3.44;100.00;97311.88;5052210;28;20028;-83
2022/02/21 04:01:41;;;;;;;38.70;19.83;;;;;;;3.41;100.00;97316.41;5019475;28;20028;-83
2022/02/21 04:04:06;;;;;;;47.17;21.50;;;;;;;3.31;100.00;97320.31;5019000;28;20561;-84
2022/02/21 04:06:32;;;;;;;105.32;34.45;;;;;;;3.21;100.00;97325.06;5051293;28;20047;-83
2022/02/21 04:08:58;;;;;;;104.15;35.95;;;;;;;3.16;100.00;97316.44;5068961;28;20051;-83
2022/02/21 04:11:23;;;;;;;59.97;26.45;;;;;;;3.02;100.00;97294.94;5018849;28;20028;-84
2022/02/21 04:13:49;;;;;;;53.85;21.50;;;;;;;3.03;100.00;97310.75;5018198;28;20109;-83
2022/02/21 04:16:14;;;;;;;43.55;20.52;;;;;;;2.91;100.00;97294.47;5017947;28;20021;-83
2022/02/21 04:18:40;;;;;;;49.55;20.70;;;;;;;2.96;100.00;97297.78;5047068;28;20044;-82
2022/02/21 04:21:06;;;;;;;41.55;20.70;;;;;;;3.04;100.00;97301.03;4998425;28;20099;-83
2022/02/21 04:23:31;;;;;;;48.10;22.80;;;;;;;2.91;100.00;97302.41;4998211;28;20030;-83
2022/02/21 04:25:57;;;;;;;44.90;19.85;;;;;;;2.93;100.00;97295.28;5031258;28;20497;-83
2022/02/21 04:28:22;;;;;;;38.75;18.88;;;;;;;2.94;100.00;97294.38;4998091;28;20083;-83
2022/02/21 04:30:48;;;;;;;41.22;21.20;;;;;;;2.92;100.00;97297.06;4996678;28;20064;-83
2022/02/21 04:33:13;;;;;;;51.35;23.80;;;;;;;2.97;100.00;97294.25;4995617;28;20061;-83
2022/02/21 04:35:39;;;;;;;48.92;22.95;;;;;;;2.92;100.00;97291.78;5032699;28;20040;-82
2022/02/21 04:38:10;;;;;;;62.10;25.70;;;;;;;2.84;100.00;97283.25;5028295;28;20477;-81
2022/02/21 04:40:35;;;;;;;86.95;39.17;;;;;;;2.88;100.00;97278.75;4999082;28;20037;-73
2022/02/21 04:43:01;;;;;;;82.00;36.42;;;;;;;2.86;100.00;97265.56;5015214;28;20033;-83
2022/02/21 04:45:26;;;;;;;62.33;30.27;;;;;;;2.68;100.00;97245.97;5000417;28;20044;-87
2022/02/21 04:47:52;;;;;;;71.32;31.50;;;;;;;2.84;100.00;97271.84;5015191;28;20112;-82
2022/02/21 04:50:18;;;;;;;63.72;29.15;;;;;;;2.90;100.00;97266.31;5000080;28;20031;-81
2022/02/21 04:52:44;;;;;;;83.10;32.53;;;;;;;2.78;100.00;97261.50;5013614;28;20485;-82
2022/02/21 04:55:12;;;;;;;75.88;35.97;;;;;;;2.78;100.00;97245.66;5014784;28;20024;-83
2022/02/21 04:57:38;;;;;;;65.55;32.83;;;;;;;2.95;100.00;97270.56;4998713;28;20025;-82
2022/02/21 05:00:06;;;;;;;68.90;32.17;;;;;;;2.96;100.00;97256.41;5028487;28;20025;-82
2022/02/21 05:02:32;;;;;;;75.97;33.83;;;;;;;2.97;100.00;97263.41;4990295;28;20077;-80
2022/02/21 05:04:57;;;;;;;74.97;34.53;;;;;;;3.08;100.00;97255.09;4997846;28;20542;-81
2022/02/21 05:07:23;;;;;;;71.93;34.97;;;;;;;3.03;100.00;97241.19;5043881;28;20025;-81
2022/02/21 05:09:48;;;;;;;85.28;38.53;;;;;;;2.97;100.00;97241.44;5003831;28;20057;-81
2022/02/21 05:12:14;;;;;;;90.68;39.45;;;;;;;3.06;100.00;97251.66;5035678;28;20029;-87
2022/02/21 05:14:40;;;;;;;70.60;34.13;;;;;;;3.13;100.00;97253.16;5045870;28;20072;-86
2022/02/21 05:17:05;;;;;;;77.32;36.38;;;;;;;3.19;100.00;97248.50;5004882;28;20235;-84
2022/02/21 05:19:31;;;;;;;75.50;36.65;;;;;;;3.10;100.00;97243.56;5017341;28;20143;-83
2022/02/21 05:21:57;;;;;;;74.63;33.65;;;;;;;2.98;100.00;97241.38;5017026;28;20481;-83
2022/02/21 05:24:23;;;;;;;80.35;35.67;;;;;;;3.03;100.00;97244.72;5032760;28;20036;-75
2022/02/21 05:26:48;;;;;;;106.05;42.42;;;;;;;2.94;100.00;97220.41;5054761;28;20056;-81
2022/02/21 05:29:14;;;;;;;108.25;44.83;;;;;;;3.01;100.00;97235.13;5021203;28;20033;-82
2022/02/21 05:31:40;;;;;;;96.32;41.97;;;;;;;2.98;100.00;97238.75;5021371;28;20107;-82
2022/02/21 05:34:05;;;;;;;94.80;39.72;;;;;;;2.86;100.00;97218.03;5021467;28;20021;-82
2022/02/21 05:36:31;;;;;;;87.90;36.95;;;;;;;3.10;100.00;97221.56;5021217;28;20109;-82
2022/02/21 05:38:57;;;;;;;86.07;37.17;;;;;;;2.92;100.00;97206.41;5021315;28;20076;-86
2022/02/21 05:41:22;;;;;;;62.85;30.25;;;;;;;2.94;100.00;97212.50;5037644;28;20083;-83
2022/02/21 05:43:48;;;;;;;66.53;31.88;;;;;;;2.93;100.00;97208.97;5037376;28;20029;-83
2022/02/21 05:46:13;;;;;;;66.70;28.13;;;;;;;3.02;100.00;97202.47;5021143;28;20114;-83
2022/02/21 05:48:39;;;;;;;135.10;51.85;;;;;;;2.96;100.00;97208.00;5020755;28;20048;-83
2022/02/21 05:51:05;;;;;;;71.75;30.75;;;;;;;3.03;100.00;97209.50;5020895;28;20112;-82
2022/02/21 05:53:30;;;;;;;73.45;31.25;;;;;;;3.02;100.00;97197.19;5021332;28;20035;-83
2022/02/21 05:55:56;;;;;;;76.43;31.88;;;;;;;3.14;100.00;97208.16;5020788;28;20025;-83
2022/02/21 05:58:21;;;;;;;60.90;28.98;;;;;;;3.28;100.00;97202.38;5021025;28;20021;-83
2022/02/21 06:01:06;;;;;;;91.13;37.15;;;;;;;3.38;100.00;97216.09;5020824;28;20025;-83
2022/02/21 06:03:32;;;;;;;80.03;37.35;;;;;;;3.45;100.00;97196.41;5020767;28;20025;-82
2022/02/21 06:05:57;;;;;;;81.60;36.22;;;;;;;3.96;100.00;97204.03;5053968;28;20040;-82
2022/02/21 06:08:23;;;;;;;89.43;41.53;;;;;;;4.61;99.57;97211.81;5020798;28;20415;-84
2022/02/21 06:10:50;;;;;;;82.78;41.38;;;;;;;4.50;98.05;97206.97;5038261;28;20025;-82
2022/02/21 06:13:16;;;;;;;90.38;40.55;;;;;;;4.39;98.10;97198.66;5039974;28;20323;-82
2022/02/21 06:15:41;;;;;;;101.72;45.03;;;;;;;4.20;98.83;97195.06;5023761;28;20035;-83
2022/02/21 06:18:08;;;;;;;105.57;48.55;;;;;;;4.02;100.00;97188.75;5020837;28;20040;-82
2022/02/21 06:20:33;;;;;;;105.00;49.63;;;;;;;3.99;100.00;97174.78;5037479;28;20032;-83
2022/02/21 06:22:59;;;;;;;107.60;50.75;;;;;;;5.42;97.94;97184.16;5020832;28;20078;-83
2022/02/21 06:25:24;;;;;;;110.13;50.58;;;;;;;7.28;84.14;97173.72;5020553;28;20033;-84
2022/02/21 06:27:50;;;;;;;137.27;63.22;;;;;;;9.41;70.55;97169.91;5053593;28;20021;-83
2022/02/21 06:30:16;;;;;;;101.90;51.33;;;;;;;10.48;64.31;97153.94;5020391;28;20025;-83
2022/02/21 06:32:41;;;;;;;155.73;68.22;;;;;;;12.03;57.89;97136.53;5020151;28;20480;-84
2022/02/21 06:35:08;;;;;;;81.55;42.67;;;;;;;13.00;54.04;97135.28;5036863;28;20416;-83
2022/02/21 06:37:33;;;;;;;68.07;30.65;;;;;;;13.87;51.25;97125.63;5037428;28;20025;-84
2022/02/21 06:39:59;;;;;;;84.82;40.78;;;;;;;14.38;50.61;97124.03;5021992;28;20036;-84
2022/02/21 06:42:24;;;;;;;77.30;42.42;;;;;;;14.99;47.93;97116.09;5021658;28;20500;-83
2022/02/21 06:44:50;;;;;;;53.65;32.15;;;;;;;15.67;46.39;97097.44;5020974;28;20072;-85
2022/02/21 06:47:16;;;;;;;74.50;37.05;;;;;;;15.31;47.72;97124.94;5020388;28;20025;-86
2022/02/21 06:49:41;;;;;;;75.97;38.78;;;;;;;14.74;47.96;97111.09;5020680;28;20024;-83
2022/02/21 06:52:07;;;;;;;78.32;41.85;;;;;;;15.18;47.42;97114.38;5020345;28;20115;-82
2022/02/21 06:54:33;;;;;;;88.75;47.78;;;;;;;13.46;49.53;97116.41;5020354;28;20031;-82
2022/02/21 06:56:58;;;;;;;106.15;54.55;;;;;;;14.62;47.29;97111.19;5037389;28;20033;-84
2022/02/21 06:59:24;;;;;;;98.32;53.83;;;;;;;14.98;45.81;97090.16;5020409;28;20122;-83
2022/02/21 07:01:49;;;;;;;116.38;59.47;;;;;;;14.63;46.74;97102.13;5020434;28;20052;-83
2022/02/21 07:04:15;;;;;;;105.55;54.15;;;;;;;14.70;45.80;97099.78;5021070;28;20102;-83
2022/02/21 07:06:40;;;;;;;140.13;70.22;;;;;;;14.82;45.96;97089.78;5021251;28;20029;-81
2022/02/21 07:09:06;;;;;;;137.15;66.18;;;;;;;15.02;45.53;97078.97;5054018;28;20036;-84
2022/02/21 07:11:32;;;;;;;120.78;54.85;;;;;;;14.83;45.58;97075.31;5020147;28;20032;-84
2022/02/21 07:13:57;;;;;;;123.07;70.30;;;;;;;14.60;46.53;97105.09;5037147;28;20508;-84
2022/02/21 07:16:23;;;;;;;85.25;45.53;;;;;;;14.44;47.28;97091.22;5053060;28;20085;-82
2022/02/21 07:18:48;;;;;;;78.60;45.20;;;;;;;14.41;46.96;97096.88;5051951;28;20485;-83
2022/02/21 07:21:14;;;;;;;83.40;42.80;;;;;;;15.05;48.08;97104.78;5054236;28;20028;-82
2022/02/21 07:23:40;;;;;;;95.38;45.88;;;;;;;15.90;44.69;97094.53;5069964;28;20029;-83
2022/02/21 07:26:05;;;;;;;78.97;42.80;;;;;;;16.66;43.32;97074.84;5020425;28;20033;-85
2022/02/21 07:28:31;;;;;;;80.85;41.10;;;;;;;16.77;41.92;97064.72;5053944;28;20025;-86
2022/02/21 07:30:57;;;;;;;80.50;44.28;;;;;;;17.33;41.23;97077.38;5019464;28;20029;-83
2022/02/21 07:33:23;;;;;;;83.20;46.15;;;;;;;17.40;41.04;97062.25;5052511;28;20035;-83
2022/02/21 07:35:48;;;;;;;87.20;46.67;;;;;;;18.26;41.81;97050.09;5035893;28;20539;-82
2022/02/21 07:38:14;;;;;;;92.00;51.20;;;;;;;18.54;39.20;97046.31;5019857;28;20536;-82
2022/02/21 07:40:39;;;;;;;81.45;45.90;;;;;;;18.84;39.85;97034.19;5052697;28;20037;-82
2022/02/21 07:43:05;;;;;;;85.55;49.13;;;;;;;19.62;37.43;97027.72;5040293;28;20143;-82
2022/02/21 07:45:31;;;;;;;84.35;48.40;;;;;;;19.59;36.71;97000.91;5032464;28;20183;-82
2022/02/21 07:47:58;;;;;;;83.57;50.65;;;;;;;18.85;38.43;97000.66;5031632;28;20038;-85
2022/02/21 07:50:25;;;;;;;100.78;53.00;;;;;;;19.62;37.41;97000.56;5016165;28;20017;-85
2022/02/21 07:52:52;;;;;;;87.80;51.22;;;;;;;19.66;37.54;97010.06;5033291;28;20040;-84
2022/02/21 07:55:18;;;;;;;88.18;49.40;;;;;;;19.42;37.68;96985.56;5032542;28;20017;-85
2022/02/21 07:57:45;;;;;;;206.75;52.08;;;;;;;20.72;35.97;96968.47;5032838;28;20029;-83
2022/02/21 08:00:12;;;;;;;109.38;55.22;;;;;;;21.33;34.70;96992.31;5036017;28;20550;-82
2022/02/21 08:02:39;;;;;;;90.70;51.22;;;;;;;20.06;36.49;96986.78;5016867;28;20487;-82
2022/02/21 08:05:06;;;;;;;81.60;45.88;;;;;;;19.29;38.34;96982.41;5012483;28;20122;-83
2022/02/21 08:07:32;;;;;;;79.75;43.63;;;;;;;20.62;36.25;96969.66;4995943;28;20025;-83
2022/02/21 08:09:57;;;;;;;78.93;42.55;;;;;;;20.80;35.77;96962.16;4983632;28;20029;-75
2022/02/21 08:12:23;;;;;;;69.65;41.80;;;;;;;21.76;34.40;96958.25;5023682;28;20025;-75
2022/02/21 08:14:48;;;;;;;84.72;43.67;;;;;;;22.33;33.73;96957.91;5051177;28;20086;-76
2022/02/21 08:17:14;;;;;;;79.60;42.80;;;;;;;21.54;34.88;96940.84;5031346;28;20419;-75
2022/02/21 08:19:40;;;;;;;72.35;39.88;;;;;;;21.50;35.40;96931.34;5083486;28;20040;-77
2022/02/21 08:22:05;;;;;;;63.10;33.38;;;;;;;20.86;36.60;96943.28;5083286;28;20024;-76
2022/02/21 08:24:31;;;;;;;68.95;34.78;;;;;;;20.10;38.56;96953.66;5066495;28;20025;-77
2022/02/21 08:26:57;;;;;;;57.65;32.88;;;;;;;21.13;36.18;96935.78;5048916;28;20028;-77
2022/02/21 08:29:23;;;;;;;55.00;30.98;;;;;;;21.02;36.76;96929.66;5048677;28;20024;-76
2022/02/21 08:31:48;;;;;;;60.95;31.88;;;;;;;21.74;35.74;96921.34;5081796;28;20028;-76
2022/02/21 08:34:15;;;;;;;48.85;27.42;;;;;;;23.07;33.63;96910.69;5073222;28;20021;-76
2022/02/21 08:36:42;;;;;;;55.20;29.45;;;;;;;23.71;32.55;96917.22;5080642;28;20032;-76
2022/02/21 08:39:07;;;;;;;45.80;27.35;;;;;;;23.10;33.18;96919.31;5062937;28;20029;-75
2022/02/21 08:41:33;;;;;;;49.53;29.38;;;;;;;21.38;35.76;96907.44;5046518;28;20346;-76
2022/02/21 08:43:58;;;;;;;45.47;28.02;;;;;;;21.23;36.74;96926.38;5067273;28;20185;-76
2022/02/21 08:46:24;;;;;;;49.45;30.15;;;;;;;21.55;35.80;96906.31;5049680;28;20029;-76
2022/02/21 08:48:50;;;;;;;54.05;28.42;;;;;;;23.06;33.61;96907.13;5083645;28;20024;-76
2022/02/21 08:51:15;;;;;;;53.72;32.05;;;;;;;23.55;33.05;96901.06;5064757;28;20042;-75
2022/02/21 08:53:41;;;;;;;90.35;48.92;;;;;;;23.84;32.40;96895.50;5048297;28;20043;-75
2022/02/21 08:56:07;;;;;;;61.60;31.83;;;;;;;25.07;31.42;96899.56;5080570;28;20102;-75
2022/02/21 08:58:32;;;;;;;33.90;21.52;;;;;;;26.04;29.33;96872.84;5081559;28;20124;-72
2022/02/21 09:00:58;;;;;;;39.53;23.20;;;;;;;25.85;29.35;96870.88;5080379;28;20041;-74
2022/02/21 09:03:26;;;;;;;42.13;23.58;;;;;;;25.01;31.20;96883.97;5046643;28;20029;-74
2022/02/21 09:05:55;;;;;;;33.47;21.45;;;;;;;24.56;31.29;96868.91;5079379;28;20031;-74
2022/02/21 09:08:21;;;;;;;26.35;17.80;;;;;;;24.45;31.40;96880.38;5029982;28;20068;-74
2022/02/21 09:10:47;;;;;;;42.50;19.27;;;;;;;24.70;32.44;96886.28;5080286;28;20029;-75
2022/02/21 09:13:13;;;;;;;27.05;18.80;;;;;;;22.87;33.70;96888.56;5063040;28;20108;-75
2022/02/21 09:15:38;;;;;;;32.33;18.88;;;;;;;23.21;33.80;96888.84;5047815;28;20095;-74
2022/02/21 09:18:05;;;;;;;36.35;20.73;;;;;;;24.39;32.67;96874.88;5079869;28;20045;-74
2022/02/21 09:20:36;;;;;;;49.65;27.17;;;;;;;25.79;29.99;96860.75;5046815;28;20103;-75
2022/02/21 09:23:02;;;;;;;42.45;23.83;;;;;;;25.00;30.76;96854.91;5046362;28;20036;-75
2022/02/21 09:25:28;;;;;;;35.60;21.50;;;;;;;23.30;33.09;96864.16;5080133;28;20032;-74
2022/02/21 09:27:54;;;;;;;30.95;18.80;;;;;;;22.84;33.81;96869.84;5030053;28;20547;-74
2022/02/21 09:30:20;;;;;;;44.30;23.90;;;;;;;22.36;34.91;96860.28;5046517;28;20029;-75
2022/02/21 09:32:46;;;;;;;28.55;17.48;;;;;;;22.81;34.67;96862.06;5080546;28;20020;-75
2022/02/21 09:35:12;;;;;;;30.85;18.30;;;;;;;23.44;33.88;96853.25;5047025;28;20028;-75
2022/02/21 09:37:39;;;;;;;32.58;20.73;;;;;;;24.48;32.13;96854.53;5079738;28;20021;-75
2022/02/21 09:40:06;;;;;;;34.53;20.20;;;;;;;25.65;30.61;96842.59;5046162;28;20037;-75
2022/02/21 09:42:32;;;;;;;29.45;19.83;;;;;;;26.11;29.95;96812.53;5079903;28;20040;-75
2022/02/21 09:44:59;;;;;;;27.13;15.68;;;;;;;26.73;28.73;96809.38;5047468;28;20056;-75
2022/02/21 09:47:25;;;;;;;29.55;12.07;;;;;;;25.22;29.84;96795.44;5062666;28;20021;-75
2022/02/21 09:49:54;;;;;;;7.90;5.00;;;;;;;25.41;29.76;96802.03;5079842;28;20029;-75
2022/02/21 09:52:19;;;;;;;11.13;5.97;;;;;;;24.69;30.23;96797.03;5061380;28;20140;-75
2022/02/21 09:54:45;;;;;;;23.65;10.38;;;;;;;23.75;32.03;96814.72;5073487;28;20551;-74
2022/02/21 09:57:14;;;;;;;10.10;4.10;;;;;;;25.52;29.59;96799.56;5047316;28;20048;-74
2022/02/21 09:59:39;;;;;;;8.25;4.72;;;;;;;25.81;29.06;96781.91;5054600;28;20033;-74
2022/02/21 10:02:05;;;;;;;11.15;4.28;;;;;;;25.43;29.20;96780.75;5046032;28;20102;-74
2022/02/21 10:04:31;;;;;;;4.25;2.63;;;;;;;24.06;30.43;96785.16;5079690;28;20117;-75
2022/02/21 10:06:57;;;;;;;4.63;2.47;;;;;;;23.59;31.13;96782.22;5079771;28;20068;-73
2022/02/21 10:09:26;;;;;;;7.75;1.92;;;;;;;24.26;31.23;96779.91;5046343;28;20079;-74
2022/02/21 10:11:54;;;;;;;9.60;5.40;;;;;;;25.90;29.05;96757.91;5064486;28;20060;-73
2022/02/21 10:14:24;;;;;;;7.15;2.88;;;;;;;26.71;28.08;96753.81;5049975;28;20029;-73
2022/02/21 10:16:53;;;;;;;18.17;5.15;;;;;;;28.13;26.46;96747.00;5030889;28;20053;-74
2022/02/21 10:19:25;;;;;;;15.45;5.63;;;;;;;30.36;23.93;96733.16;5033261;28;20039;-75
2022/02/21 10:22:06;;;;;;;9.13;3.20;;;;;;;28.71;26.11;96733.75;5050716;28;20411;-75
2022/02/21 10:24:41;;;;;;;4.53;2.80;;;;;;;27.51;26.94;96731.34;5053770;28;20539;-75
2022/02/21 10:27:24;;;;;;;5.93;3.25;;;;;;;27.48;26.77;96726.28;5050807;28;20020;-75
2022/02/21 10:29:53;;;;;;;7.68;3.72;;;;;;;26.96;27.45;96715.56;5033066;28;20029;-75
2022/02/21 10:32:28;;;;;;;4.95;3.10;;;;;;;26.27;26.24;96705.19;5050880;28;20025;-75
2022/02/21 10:34:54;;;;;;;5.40;2.70;;;;;;;26.22;26.82;96707.72;5032935;28;20543;-75
2022/02/21 10:37:23;;;;;;;8.18;2.90;;;;;;;25.48;27.68;96707.00;5019329;28;20117;-75
2022/02/21 10:39:49;;;;;;;9.02;2.45;;;;;;;24.29;28.36;96681.09;5030209;28;20056;-73
2022/02/21 10:42:25;;;;;;;4.70;2.58;;;;;;;24.82;29.03;96697.78;5012946;28;20029;-74
2022/02/21 10:44:51;;;;;;;54.67;33.83;;;;;;;25.09;29.15;96681.25;5029155;28;20029;-74
2022/02/21 10:47:19;;;;;;;8.63;3.50;;;;;;;25.34;28.89;96690.59;5029198;28;20378;-75
2022/02/21 10:49:55;;;;;;;3.55;2.55;;;;;;;24.06;28.93;96684.06;5045739;28;20040;-74
2022/02/21 10:52:23;;;;;;;6.72;3.08;;;;;;;23.01;30.49;96680.38;5013039;28;20030;-74
2022/02/21 10:54:50;;;;;;;8.43;2.70;;;;;;;22.82;30.54;96683.75;5029274;28;20389;-75
2022/02/21 10:57:18;;;;;;;5.63;2.67;;;;;;;22.65;32.09;96674.09;5043717;28;20028;-74
2022/02/21 10:59:44;;;;;;;4.55;2.30;;;;;;;24.39;29.05;96654.25;5032794;28;20099;-74
2022/02/21 11:02:14;;;;;;;5.93;2.67;;;;;;;24.20;28.41;96646.78;5012902;28;20030;-74
2022/02/21 11:04:41;;;;;;;4.60;2.20;;;;;;;24.29;27.81;96642.81;5044966;28;20026;-73
2022/02/21 11:07:06;;;;;;;6.45;2.30;;;;;;;25.52;26.91;96642.59;5037665;28;20508;-74
2022/02/21 11:09:33;;;;;;;5.38;2.50;;;;;;;26.08;25.92;96626.53;5032358;28;20027;-73
2022/02/21 11:12:00;;;;;;;3.33;2.25;;;;;;;26.88;24.71;96615.09;4998464;28;20083;-75
2022/02/21 11:14:28;;;;;;;6.75;2.80;;;;;;;26.62;25.15;96601.44;5046890;28;20124;-74